Time;durP1;ratioP1;P1;durP2;ratioP2;P2;SDS_P1;SDS_P2;PMS_P1;PMS_P2;Temp;Humidity;BMP_temperature;BMP_pressure;BME280_temperature;BME280_humidity;BME280_pressure;Samples;Min_cycle;Max_cycle;Signal;HPM_P1;HPM_P2
2022/10/29 00:03:43;;;;;;;16.60;4.75;;;;;;;13.63;100.00;102121.56;2614270;54;20049;-52
2022/10/29 00:06:14;;;;;;;14.45;4.65;;;;;;;13.63;100.00;102125.13;2620901;31;20039;-54
2022/10/29 00:08:43;;;;;;;15.95;4.68;;;;;;;13.58;100.00;102116.53;2616243;31;20026;-54
2022/10/29 00:11:12;;;;;;;;;;;;;;;13.64;100.00;102112.47;2617086;36;20475;-51
2022/10/29 00:13:40;;;;;;;;;;;;;;;13.65;100.00;102120.44;2616410;36;19969;-53
2022/10/29 00:16:10;;;;;;;10.43;4.47;;;;;;;13.67;100.00;102118.47;2615641;36;19963;-51
2022/10/29 00:18:38;;;;;;;11.50;4.90;;;;;;;13.57;100.00;102111.25;2617073;36;20029;-53
2022/10/29 00:21:09;;;;;;;11.27;5.20;;;;;;;13.53;100.00;102099.81;2616779;36;20603;-55
2022/10/29 00:23:40;;;;;;;12.48;4.75;;;;;;;13.51;100.00;102101.78;2616228;36;20045;-54
2022/10/29 00:26:09;;;;;;;13.60;4.43;;;;;;;13.46;100.00;102121.09;2616870;36;20022;-56
2022/10/29 00:28:37;;;;;;;15.15;5.28;;;;;;;13.41;100.00;102117.03;2616025;36;20022;-52
2022/10/29 00:31:06;;;;;;;16.52;4.53;;;;;;;13.42;100.00;102102.53;2615799;36;20054;-54
2022/10/29 00:41:22;;;;;;;15.60;6.13;;;;;;;13.30;100.00;102099.78;2613416;36;20026;-54
2022/10/29 00:51:11;;;;;;;17.33;6.85;;;;;;;13.33;100.00;102110.34;2616288;36;20040;-56
2022/10/29 00:58:44;;;;;;;16.50;6.28;;;;;;;13.30;100.00;102093.53;2612071;54;20058;-53
2022/10/29 01:01:13;;;;;;;14.88;5.82;;;;;;;13.31;100.00;102090.72;2626184;36;20038;-56
2022/10/29 01:03:42;;;;;;;10.43;5.40;;;;;;;13.23;100.00;102092.31;2615556;36;20177;-52
2022/10/29 01:06:10;;;;;;;16.45;5.85;;;;;;;13.24;100.00;102092.19;2616787;36;20026;-53
2022/10/29 01:08:39;;;;;;;17.05;6.05;;;;;;;13.19;100.00;102091.72;2615366;36;20085;-54
2022/10/29 01:11:23;;;;;;;15.00;5.40;;;;;;;13.12;100.00;102090.47;2616141;36;20030;-53
2022/10/29 01:21:46;;;;;;;11.30;5.43;;;;;;;12.96;100.00;102072.75;2614091;36;20040;-54
2022/10/29 01:24:56;;;;;;;15.13;5.20;;;;;;;12.94;100.00;102069.34;2616355;36;20065;-51
2022/10/29 01:27:51;;;;;;;8.30;5.30;;;;;;;12.85;100.00;102067.34;2615922;36;20081;-51
2022/10/29 01:38:09;;;;;;;15.02;5.18;;;;;;;12.81;100.00;102057.78;2614495;54;20031;-53
2022/10/29 01:40:47;;;;;;;14.70;4.85;;;;;;;12.83;100.00;102057.66;2616622;36;20057;-57
2022/10/29 01:43:20;;;;;;;13.32;5.63;;;;;;;12.73;100.00;102057.50;2614917;36;20030;-56
2022/10/29 01:53:52;;;;;;;13.90;5.65;;;;;;;12.69;100.00;102029.00;2615962;36;20073;-56
2022/10/29 02:03:51;;;;;;;13.50;5.97;;;;;;;12.71;100.00;102022.50;2612905;54;20035;-57
2022/10/29 02:14:07;;;;;;;15.38;5.28;;;;;;;12.59;100.00;102029.75;2612474;54;20035;-54
2022/10/29 02:24:23;;;;;;;15.23;5.55;;;;;;;12.77;100.00;102045.50;2613864;36;20038;-56
2022/10/29 02:34:35;;;;;;;17.70;5.38;;;;;;;12.55;100.00;102027.41;2615562;36;20069;-55
2022/10/29 02:37:03;;;;;;;10.23;4.57;;;;;;;12.55;100.00;102020.16;2615781;36;20038;-56
2022/10/29 02:39:32;;;;;;;13.27;5.23;;;;;;;12.57;100.00;102009.25;2618009;31;20026;-54
2022/10/29 02:49:35;;;;;;;14.40;5.63;;;;;;;12.43;100.00;102011.19;2612975;54;20050;-50
2022/10/29 02:52:03;;;;;;;17.33;5.25;;;;;;;12.48;100.00;102010.81;2616872;36;20543;-56
2022/10/29 02:54:32;;;;;;;13.63;6.93;;;;;;;12.48;100.00;102008.13;2617476;36;20045;-56
2022/10/29 02:57:00;;;;;;;13.63;5.78;;;;;;;12.51;100.00;102005.16;2616099;36;20416;-58
2022/10/29 02:59:28;;;;;;;15.07;6.00;;;;;;;12.49;100.00;101995.50;2615062;36;20046;-53
2022/10/29 03:01:57;;;;;;;18.00;6.17;;;;;;;12.40;100.00;101997.06;2615782;31;20303;-51
2022/10/29 03:04:25;;;;;;;15.23;6.28;;;;;;;12.49;100.00;102001.75;2615753;36;20673;-54
2022/10/29 03:06:56;;;;;;;17.83;6.33;;;;;;;12.56;100.00;102003.00;2616148;36;20038;-51
2022/10/29 03:16:55;;;;;;;14.57;5.60;;;;;;;12.52;100.00;101984.44;2612520;54;20181;-55
2022/10/29 03:26:59;;;;;;;14.63;5.32;;;;;;;12.40;100.00;101991.69;2614884;36;20182;-54
2022/10/29 03:29:36;;;;;;;8.90;4.68;;;;;;;12.37;100.00;102000.88;2617179;54;20042;-55
2022/10/29 03:32:04;;;;;;;12.55;5.30;;;;;;;12.33;100.00;101990.44;2615259;31;20033;-54
2022/10/29 03:42:13;;;;;;;11.23;4.80;;;;;;;12.25;100.00;101997.28;2614291;36;20647;-55
2022/10/29 03:52:25;;;;;;;14.63;5.25;;;;;;;12.31;100.00;102001.34;2613812;36;20133;-56
2022/10/29 03:54:54;;;;;;;13.13;5.97;;;;;;;12.33;100.00;101995.84;2616371;36;20106;-55
2022/10/29 04:04:55;;;;;;;13.57;5.78;;;;;;;12.65;100.00;101997.81;2612769;54;20039;-55
2022/10/29 04:07:24;;;;;;;11.57;5.95;;;;;;;12.73;100.00;101990.81;2620341;36;20038;-55
2022/10/29 04:17:15;;;;;;;13.70;6.07;;;;;;;12.96;100.00;101989.00;2614358;36;20093;-54
2022/10/29 04:19:46;;;;;;;16.52;7.38;;;;;;;13.02;100.00;101990.34;2616500;36;20034;-54
2022/10/29 04:22:17;;;;;;;13.52;7.60;;;;;;;13.06;100.00;101991.81;2615780;36;20041;-57
2022/10/29 04:24:46;;;;;;;14.30;7.22;;;;;;;13.11;100.00;101986.03;2616704;36;20551;-58
2022/10/29 04:27:14;;;;;;;15.50;7.83;;;;;;;13.14;100.00;101988.47;2616630;31;20029;-52
2022/10/29 04:37:26;;;;;;;13.98;6.80;;;;;;;13.23;100.00;101976.06;2613061;54;20053;-54
2022/10/29 04:47:40;;;;;;;17.58;8.27;;;;;;;13.36;100.00;101963.28;2612694;54;20038;-54
2022/10/29 04:50:10;;;;;;;18.05;8.57;;;;;;;13.41;100.00;101969.16;2615988;36;20046;-50
2022/10/29 05:00:25;;;;;;;24.65;9.63;;;;;;;13.58;100.00;101956.94;2611473;36;20050;-51
2022/10/29 05:02:54;;;;;;;;;;;;;;;13.63;100.00;101952.00;2615707;36;20022;-54
2022/10/29 05:13:01;;;;;;;19.30;9.82;;;;;;;13.72;100.00;101963.00;2612874;39;20592;-55
2022/10/29 05:15:31;;;;;;;19.98;9.57;;;;;;;13.77;100.00;101961.66;2614268;36;20042;-52
2022/10/29 05:33:08;;;;;;;17.50;9.73;;;;;;;13.88;100.00;101941.78;2614088;36;20117;-54
2022/10/29 05:35:37;;;;;;;20.20;9.77;;;;;;;13.88;100.00;101947.19;2615668;36;20543;-51
2022/10/29 05:38:07;;;;;;;18.10;9.57;;;;;;;13.91;100.00;101943.38;2615735;36;20035;-51
2022/10/29 05:48:09;;;;;;;21.17;11.15;;;;;;;14.00;100.00;101926.31;2614905;36;20139;-54
2022/10/29 05:50:38;;;;;;;24.50;11.63;;;;;;;14.04;100.00;101940.47;2615692;36;20022;-54
2022/10/29 06:08:26;;;;;;;23.45;9.77;;;;;;;14.12;100.00;101916.28;2613149;36;20058;-57
2022/10/29 06:26:45;;;;;;;20.33;10.65;;;;;;;14.27;100.00;101928.50;2615886;36;20066;-54
2022/10/29 06:36:53;;;;;;;18.20;10.15;;;;;;;14.32;100.00;101928.09;2613550;36;20053;-53
2022/10/29 06:39:22;;;;;;;20.25;10.68;;;;;;;14.35;100.00;101917.88;2617228;36;20030;-53
2022/10/29 06:49:35;;;;;;;18.80;9.55;;;;;;;14.37;100.00;101909.59;2614629;54;20049;-52
2022/10/29 07:00:04;;;;;;;21.35;10.07;;;;;;;14.55;100.00;101907.09;2615190;54;20040;-55
2022/10/29 07:23:04;;;;;;;17.48;9.75;;;;;;;14.89;100.00;101896.81;2613561;54;20042;-54
2022/10/29 07:25:35;;;;;;;18.02;9.20;;;;;;;14.93;100.00;101900.13;2616131;36;20030;-55
2022/10/29 07:28:07;;;;;;;19.63;9.55;;;;;;;15.03;100.00;101908.28;2616856;36;20539;-54
2022/10/29 07:30:36;;;;;;;19.30;10.52;;;;;;;15.13;100.00;101908.28;2616184;36;20022;-54
2022/10/29 07:33:04;;;;;;;21.63;11.00;;;;;;;15.19;100.00;101905.91;2616052;36;20026;-57
2022/10/29 07:35:34;;;;;;;16.67;9.57;;;;;;;15.21;100.00;101913.88;2616741;36;20042;-55
2022/10/29 07:38:06;;;;;;;21.17;10.35;;;;;;;15.26;100.00;101910.75;2616527;36;20039;-56
2022/10/29 07:40:35;;;;;;;20.65;9.05;;;;;;;15.30;100.00;101920.31;2616841;31;20031;-51
2022/10/29 07:48:02;;;;;;;21.10;10.10;;;;;;;15.42;100.00;101925.44;2612917;54;20031;-56
2022/10/29 07:50:32;;;;;;;17.30;9.35;;;;;;;15.43;100.00;101915.47;2616847;36;20034;-56
2022/10/29 07:58:26;;;;;;;21.45;12.00;;;;;;;15.66;100.00;101910.59;2614526;36;20185;-50
2022/10/29 08:32:24;;;;;;;20.00;10.60;;;;;;;16.64;100.00;101900.34;2613986;54;20121;-53
2022/10/29 08:42:33;;;;;;;19.75;9.50;;;;;;;17.07;100.00;101884.41;2616191;36;20023;-52
2022/10/29 08:45:20;;;;;;;19.00;9.57;;;;;;;17.16;100.00;101883.47;2616008;36;20041;-55
2022/10/29 08:48:06;;;;;;;17.83;9.57;;;;;;;17.39;100.00;101890.31;2616714;36;20065;-52
2022/10/29 08:50:40;;;;;;;22.45;9.75;;;;;;;17.56;100.00;101873.13;2617339;36;20452;-55
2022/10/29 09:00:59;;;;;;;18.83;9.27;;;;;;;17.78;100.00;101882.66;2612967;36;20073;-55
2022/10/29 09:03:29;;;;;;;15.40;9.55;;;;;;;17.79;100.00;101869.91;2614477;36;20038;-54
2022/10/29 09:06:08;;;;;;;19.48;9.50;;;;;;;17.79;100.00;101865.31;2616298;36;20034;-56
2022/10/29 09:08:48;;;;;;;17.65;8.15;;;;;;;18.15;100.00;101859.78;2616448;36;20042;-52
2022/10/29 09:19:39;;;;;;;13.55;7.75;;;;;;;18.73;100.00;101847.25;2611046;54;20038;-53
2022/10/29 09:22:18;;;;;;;19.00;8.23;;;;;;;18.56;100.00;101851.81;2614187;36;20677;-52
2022/10/29 09:24:59;;;;;;;18.73;7.75;;;;;;;18.74;100.00;101859.00;2615264;36;20039;-56
2022/10/29 09:27:38;;;;;;;18.95;7.80;;;;;;;18.90;100.00;101852.78;2614203;31;20146;-54
2022/10/29 09:30:13;;;;;;;13.25;7.22;;;;;;;19.06;100.00;101862.88;2615036;31;20557;-52
2022/10/29 09:32:45;;;;;;;18.00;7.00;;;;;;;19.14;100.00;101854.72;2616279;36;20038;-54
2022/10/29 09:35:17;;;;;;;13.85;6.28;;;;;;;19.37;100.00;101854.03;2616157;36;20061;-54
2022/10/29 09:37:50;;;;;;;15.60;7.40;;;;;;;19.40;100.00;101849.09;2615291;36;20428;-55
2022/10/29 09:40:31;;;;;;;16.73;6.72;;;;;;;19.23;100.00;101847.38;2615469;36;20042;-50
2022/10/29 09:43:01;;;;;;;11.15;5.82;;;;;;;19.08;100.00;101836.28;2616260;36;20046;-55
2022/10/29 09:45:51;;;;;;;13.70;6.97;;;;;;;19.31;100.00;101827.44;2616588;31;20042;-54
2022/10/29 09:48:27;;;;;;;16.60;6.43;;;;;;;19.40;100.00;101820.94;2616821;36;20951;-53
2022/10/29 09:58:31;;;;;;;14.27;7.03;;;;;;;19.63;100.00;101801.13;2613678;36;20042;-53
2022/10/29 10:00:59;;;;;;;14.85;7.00;;;;;;;19.81;100.00;101790.88;2616581;31;20586;-54
2022/10/29 10:03:31;;;;;;;13.27;6.50;;;;;;;19.56;100.00;101795.50;2617191;31;20034;-51
2022/10/29 10:13:58;;;;;;;17.00;6.18;;;;;;;19.76;100.00;101782.34;2615187;54;20038;-52
2022/10/29 10:16:29;;;;;;;13.20;5.82;;;;;;;19.67;100.00;101773.31;2616885;36;20030;-54
2022/10/29 10:18:57;;;;;;;11.73;5.47;;;;;;;19.74;100.00;101757.06;2617801;36;20411;-56
2022/10/29 10:36:33;;;;;;;10.48;4.95;;;;;;;20.47;100.00;101769.59;2612735;36;20023;-55
2022/10/29 10:39:06;;;;;;;11.27;5.75;;;;;;;20.42;100.00;101776.63;2617949;47;20034;-56
2022/10/29 10:41:36;;;;;;;12.10;5.05;;;;;;;20.34;100.00;101780.25;2614609;36;20062;-57
2022/10/29 10:44:06;;;;;;;10.05;4.88;;;;;;;20.35;100.00;101786.59;2616397;36;20023;-56
2022/10/29 10:46:38;;;;;;;9.60;4.85;;;;;;;20.47;100.00;101779.69;2615852;36;20034;-55
2022/10/29 10:49:15;;;;;;;12.02;5.18;;;;;;;20.50;100.00;101778.50;2616343;36;20546;-50
2022/10/29 10:51:52;;;;;;;10.77;4.75;;;;;;;20.39;100.00;101779.72;2615093;36;20038;-53
2022/10/29 10:54:40;;;;;;;10.18;4.50;;;;;;;20.43;100.00;101761.94;2616229;36;20031;-54
2022/10/29 10:57:22;;;;;;;8.52;4.78;;;;;;;20.54;100.00;101758.81;2615891;36;20570;-56
2022/10/29 10:59:59;;;;;;;14.82;5.05;;;;;;;20.51;100.00;101753.69;2617072;31;20428;-55
2022/10/29 11:02:38;;;;;;;10.68;4.43;;;;;;;20.52;100.00;101755.38;2616674;31;20045;-52
2022/10/29 11:05:16;;;;;;;8.73;4.53;;;;;;;20.42;100.00;101750.16;2615983;36;20026;-56
2022/10/29 11:15:16;;;;;;;9.73;4.07;;;;;;;20.94;100.00;101734.94;2614557;36;20034;-53
2022/10/29 11:17:52;;;;;;;13.43;4.40;;;;;;;20.92;100.00;101723.34;2617213;36;20029;-54
2022/10/29 11:20:25;;;;;;;9.73;3.85;;;;;;;21.08;100.00;101721.50;2616672;36;20034;-55
2022/10/29 11:23:10;;;;;;;10.40;3.95;;;;;;;21.23;100.00;101718.78;2616194;36;20023;-55
2022/10/29 11:25:46;;;;;;;9.40;3.70;;;;;;;21.33;100.00;101724.84;2616685;36;20030;-55
2022/10/29 11:28:24;;;;;;;8.52;3.65;;;;;;;21.18;100.00;101717.44;2616537;36;20065;-55
2022/10/29 11:31:01;;;;;;;12.88;4.28;;;;;;;21.41;100.00;101722.03;2616637;36;20034;-54
2022/10/29 11:41:22;;;;;;;6.50;3.17;;;;;;;22.20;100.00;101709.63;2616770;36;20407;-54
2022/10/29 11:51:30;;;;;;;8.07;3.30;;;;;;;22.01;100.00;101705.59;2615060;36;20023;-56
2022/10/29 11:54:02;;;;;;;10.52;3.40;;;;;;;21.96;100.00;101697.13;2616547;36;20515;-57
2022/10/29 11:56:45;;;;;;;8.70;3.13;;;;;;;22.00;100.00;101693.81;2616634;31;20041;-56
2022/10/29 11:59:24;;;;;;;5.93;3.03;;;;;;;21.82;100.00;101688.72;2617005;36;20023;-55
2022/10/29 12:02:05;;;;;;;9.82;4.18;;;;;;;21.86;100.00;101680.97;2616158;36;20023;-56
2022/10/29 12:04:36;;;;;;;6.30;3.30;;;;;;;21.97;100.00;101680.47;2616916;36;20034;-53
2022/10/29 12:07:20;;;;;;;9.02;2.65;;;;;;;22.14;100.00;101680.25;2616030;36;20026;-55
2022/10/29 12:10:07;;;;;;;10.85;3.20;;;;;;;22.15;100.00;101674.56;2616479;31;20034;-56
2022/10/29 12:12:44;;;;;;;7.95;3.35;;;;;;;22.35;100.00;101680.31;2616661;36;20034;-57
2022/10/29 12:22:47;;;;;;;9.63;3.50;;;;;;;22.28;100.00;101673.88;2614134;31;20034;-55
2022/10/29 12:33:06;;;;;;;13.00;3.22;;;;;;;22.11;100.00;101655.97;2614868;36;20150;-58
2022/10/29 12:35:43;;;;;;;8.35;3.53;;;;;;;21.87;100.00;101649.78;2616620;36;20049;-57
2022/10/29 12:38:26;;;;;;;10.07;3.45;;;;;;;22.01;100.00;101646.16;2615046;36;20041;-59
2022/10/29 12:41:01;;;;;;;8.18;3.40;;;;;;;21.96;100.00;101656.00;2616549;36;20435;-55
2022/10/29 12:43:32;;;;;;;8.45;3.13;;;;;;;22.20;100.00;101654.78;2616481;36;20042;-57
2022/10/29 12:54:12;;;;;;;7.75;3.42;;;;;;;22.08;100.00;101656.34;2614663;54;20038;-57
2022/10/29 12:56:41;;;;;;;8.73;3.60;;;;;;;22.38;100.00;101647.03;2616365;36;20030;-57
2022/10/29 12:59:31;;;;;;;9.98;4.05;;;;;;;22.39;100.00;101645.13;2615881;36;20065;-58
2022/10/29 13:02:34;;;;;;;11.85;4.00;;;;;;;22.43;100.00;101642.84;2613712;36;20431;-58
2022/10/29 13:05:40;;;;;;;9.48;4.00;;;;;;;22.41;100.00;101629.34;2615527;31;20026;-55
2022/10/29 13:16:01;;;;;;;11.63;3.90;;;;;;;22.50;100.00;101606.19;2615439;36;20078;-56
2022/10/29 13:18:34;;;;;;;7.95;4.35;;;;;;;22.77;100.00;101605.59;2616239;31;20037;-57
2022/10/29 13:21:02;;;;;;;11.35;4.03;;;;;;;22.82;100.00;101606.69;2616632;36;20065;-57
2022/10/29 13:23:34;;;;;;;9.77;4.07;;;;;;;23.13;100.00;101601.84;2616258;36;20060;-57
2022/10/29 13:26:03;;;;;;;10.65;3.85;;;;;;;23.26;100.00;101610.16;2616546;36;20035;-56
2022/10/29 13:28:49;;;;;;;9.55;4.53;;;;;;;22.95;100.00;101607.81;2617006;31;20114;-58
2022/10/29 13:31:51;;;;;;;11.90;3.83;;;;;;;22.93;100.00;101611.59;2616854;39;20413;-57
2022/10/29 13:34:49;;;;;;;10.35;3.75;;;;;;;22.66;100.00;101607.81;2616439;31;20030;-58
2022/10/29 13:37:56;;;;;;;11.77;4.93;;;;;;;22.59;100.00;101606.91;2615541;36;20034;-56
2022/10/29 13:40:55;;;;;;;9.70;4.22;;;;;;;22.29;100.00;101604.28;2616842;36;20027;-57
2022/10/29 13:43:24;;;;;;;9.43;4.57;;;;;;;22.30;100.00;101605.97;2617737;54;20023;-57
2022/10/29 13:46:03;;;;;;;9.40;3.78;;;;;;;22.42;100.00;101600.84;2616216;36;20030;-57
2022/10/29 13:56:22;;;;;;;8.27;3.50;;;;;;;22.68;100.00;101583.75;2614041;36;20420;-57
2022/10/29 13:58:52;;;;;;;8.18;3.83;;;;;;;22.82;100.00;101586.59;2616109;36;20022;-57
2022/10/29 14:16:28;;;;;;;8.52;4.32;;;;;;;22.07;100.00;101567.78;2613557;36;19951;-57
2022/10/29 14:18:57;;;;;;;10.90;4.70;;;;;;;21.78;100.00;101575.06;2616392;31;20034;-56
2022/10/29 14:21:27;;;;;;;12.30;4.78;;;;;;;21.82;100.00;101575.50;2615913;36;20432;-55
2022/10/29 14:31:38;;;;;;;9.95;4.25;;;;;;;21.63;100.00;101572.34;2615056;36;20027;-57
2022/10/29 14:34:07;;;;;;;7.40;4.30;;;;;;;21.64;100.00;101568.59;2616376;36;20038;-57
2022/10/29 14:36:38;;;;;;;;;;;;;;;21.54;100.00;101568.03;2616496;36;20031;-58
2022/10/29 14:39:18;;;;;;;9.45;4.55;;;;;;;21.63;100.00;101564.13;2617288;36;19938;-57
2022/10/29 14:41:49;;;;;;;8.20;4.35;;;;;;;21.63;100.00;101564.13;2617597;36;20416;-57
2022/10/29 14:44:20;;;;;;;13.45;4.78;;;;;;;21.50;100.00;101562.06;2617014;36;20038;-57
2022/10/29 15:02:14;;;;;;;9.95;4.85;;;;;;;21.04;100.00;101572.34;2614181;36;20045;-57
2022/10/29 15:04:49;;;;;;;8.70;4.60;;;;;;;21.02;100.00;101571.72;2617575;31;20432;-57
2022/10/29 15:07:33;;;;;;;9.25;4.60;;;;;;;21.04;100.00;101562.28;2616456;36;20558;-57
2022/10/29 15:10:18;;;;;;;12.18;5.18;;;;;;;20.92;100.00;101570.09;2617015;36;20077;-55
2022/10/29 15:12:48;;;;;;;14.25;5.57;;;;;;;20.90;100.00;101561.22;2618384;31;20026;-57
2022/10/29 15:15:26;;;;;;;13.27;5.43;;;;;;;20.95;100.00;101568.84;2617717;36;20034;-57
2022/10/29 15:18:01;;;;;;;15.55;5.70;;;;;;;20.93;100.00;101577.25;2618465;36;20023;-57
2022/10/29 15:20:37;;;;;;;13.45;5.90;;;;;;;20.69;100.00;101564.69;2617011;36;20033;-52
2022/10/29 15:23:05;;;;;;;13.65;5.80;;;;;;;20.59;100.00;101564.91;2616385;36;20532;-57
2022/10/29 15:25:37;;;;;;;21.88;12.30;;;;;;;20.45;100.00;101558.38;2616411;36;20563;-57
2022/10/29 15:28:11;;;;;;;12.05;6.75;;;;;;;20.42;100.00;101560.63;2616455;36;20038;-56
2022/10/29 15:30:40;;;;;;;9.35;4.90;;;;;;;20.56;100.00;101557.09;2614744;36;20041;-58
2022/10/29 15:33:18;;;;;;;;;;;;;;;20.60;100.00;101552.94;2614775;54;20037;-57
2022/10/29 15:35:53;;;;;;;48.25;42.03;;;;;;;20.47;100.00;101555.47;2615910;36;19981;-58
2022/10/29 15:39:21;;;;;;;21.40;18.63;;;;;;;20.41;100.00;101554.31;2615425;36;20130;-56
2022/10/29 15:56:57;;;;;;;32.53;18.95;;;;;;;19.92;100.00;101535.56;2613729;36;20026;-57
2022/10/29 16:04:27;;;;;;;;;;;;;;;19.84;100.00;101536.47;2613007;54;20587;-57
2022/10/29 16:06:56;;;;;;;54.30;43.38;;;;;;;19.75;100.00;101537.53;2613284;36;19950;-57
2022/10/29 16:09:30;;;;;;;18.10;12.73;;;;;;;19.68;100.00;101528.34;2616470;31;20037;-57
2022/10/29 16:12:01;;;;;;;18.88;9.05;;;;;;;19.47;100.00;101527.09;2616325;36;20073;-57
2022/10/29 16:14:29;;;;;;;13.77;7.60;;;;;;;19.41;100.00;101522.34;2617058;36;20041;-57
2022/10/29 16:21:56;;;;;;;31.85;17.60;;;;;;;19.56;100.00;101520.56;2612195;54;20031;-56
2022/10/29 16:24:25;;;;;;;18.65;8.85;;;;;;;19.77;100.00;101513.59;2615962;36;20042;-57
2022/10/29 16:26:54;;;;;;;16.30;9.38;;;;;;;19.53;100.00;101510.00;2616202;36;20022;-57
2022/10/29 16:29:24;;;;;;;18.58;6.47;;;;;;;19.56;100.00;101515.09;2616032;31;20564;-57
2022/10/29 16:31:53;;;;;;;23.05;12.27;;;;;;;19.56;100.00;101504.16;2615206;36;20027;-57
2022/10/29 16:34:21;;;;;;;21.77;10.45;;;;;;;19.52;100.00;101504.72;2616779;31;20439;-57
2022/10/29 16:44:27;;;;;;;15.13;7.20;;;;;;;19.31;100.00;101508.91;2614212;36;20038;-56
2022/10/29 16:46:55;;;;;;;24.73;12.45;;;;;;;19.34;100.00;101505.00;2615546;36;20038;-57
2022/10/29 16:49:24;;;;;;;28.67;13.77;;;;;;;19.34;100.00;101505.00;2614002;36;20444;-57
2022/10/29 16:51:52;;;;;;;13.90;8.90;;;;;;;19.28;100.00;101497.53;2613124;36;20068;-56
2022/10/29 16:54:20;;;;;;;12.93;8.43;;;;;;;19.28;100.00;101495.63;2615704;31;20451;-57
2022/10/29 16:56:51;;;;;;;14.82;7.20;;;;;;;19.16;100.00;101492.44;2614455;36;20026;-57
2022/10/29 16:59:19;;;;;;;15.80;8.40;;;;;;;19.06;100.00;101498.09;2616759;31;20118;-57
2022/10/29 17:09:16;;;;;;;9.65;5.65;;;;;;;18.93;100.00;101480.59;2614502;36;20031;-56
2022/10/29 17:11:52;;;;;;;11.23;6.75;;;;;;;18.97;100.00;101479.22;2615912;36;20037;-57
2022/10/29 17:22:14;;;;;;;14.77;6.50;;;;;;;18.90;100.00;101479.94;2614198;36;20599;-57
2022/10/29 17:32:31;;;;;;;19.42;6.18;;;;;;;19.04;100.00;101472.03;2613915;36;20042;-58
2022/10/29 17:34:59;;;;;;;14.10;6.20;;;;;;;19.07;100.00;101486.16;2614935;36;20030;-58
2022/10/29 17:37:29;;;;;;;11.70;5.72;;;;;;;19.02;100.00;101482.28;2615423;36;20038;-57
2022/10/29 17:39:57;;;;;;;15.00;5.72;;;;;;;18.89;100.00;101494.59;2614777;36;20035;-56
2022/10/29 17:42:25;;;;;;;15.43;5.50;;;;;;;18.97;100.00;101495.59;2615068;36;20533;-57
2022/10/29 17:52:47;;;;;;;;;;;;;;;18.91;100.00;101484.34;2613494;36;20031;-55
2022/10/29 17:55:15;;;;;;;17.20;7.25;;;;;;;18.90;100.00;101487.25;2615344;36;19962;-55
2022/10/29 18:05:17;;;;;;;13.32;5.45;;;;;;;18.68;100.00;101486.09;2612170;54;20038;-57
2022/10/29 18:07:51;;;;;;;13.02;5.93;;;;;;;18.64;100.00;101479.28;2614837;54;20035;-55
2022/10/29 18:28:24;;;;;;;14.07;4.75;;;;;;;18.74;100.00;101494.44;2614951;54;20069;-55
2022/10/29 18:30:54;;;;;;;10.95;4.97;;;;;;;18.75;100.00;101498.00;2615944;54;20531;-57
2022/10/29 18:33:22;;;;;;;12.17;5.23;;;;;;;18.77;100.00;101493.25;2614577;36;20193;-56
2022/10/29 18:35:55;;;;;;;10.23;5.25;;;;;;;18.65;100.00;101498.19;2615952;47;20310;-56
2022/10/29 18:41:03;;;;;;;13.40;4.55;;;;;;;18.93;100.00;101502.44;2614375;54;20077;-56
2022/10/29 18:43:35;;;;;;;15.20;5.13;;;;;;;18.98;100.00;101508.22;2619609;36;20042;-56
2022/10/29 18:46:05;;;;;;;13.20;6.15;;;;;;;18.97;100.00;101515.53;2616437;36;20712;-56
2022/10/29 18:48:38;;;;;;;11.25;4.75;;;;;;;19.08;100.00;101511.59;2614938;36;20042;-54
2022/10/29 18:51:09;;;;;;;9.80;4.75;;;;;;;19.12;100.00;101514.81;2614071;54;20035;-56
2022/10/29 19:01:29;;;;;;;12.05;5.70;;;;;;;19.19;100.00;101518.53;2615008;54;20034;-57
2022/10/29 19:06:49;;;;;;;15.40;5.50;;;;;;;19.01;100.00;101505.16;2616861;36;20042;-57
2022/10/29 19:11:47;;;;;;;17.13;6.15;;;;;;;19.01;100.00;101510.59;2616752;36;20532;-56
2022/10/29 19:16:58;;;;;;;15.45;5.35;;;;;;;18.99;100.00;101501.72;2616168;51;20039;-54
2022/10/29 19:22:17;;;;;;;13.68;5.35;;;;;;;18.97;100.00;101498.31;2613967;36;20546;-56
2022/10/29 19:24:47;;;;;;;13.27;5.97;;;;;;;18.79;100.00;101499.38;2615944;36;20031;-57
2022/10/29 19:29:51;;;;;;;13.65;6.22;;;;;;;18.78;100.00;101503.13;2616388;36;19957;-57
2022/10/29 19:35:05;;;;;;;15.75;6.95;;;;;;;18.63;100.00;101507.59;2615806;54;20030;-57
2022/10/29 19:48:07;;;;;;;11.82;6.35;;;;;;;18.80;100.00;101498.34;2614598;36;20042;-57
2022/10/29 19:55:54;;;;;;;15.40;7.50;;;;;;;18.70;100.00;101497.69;2613046;54;20030;-57
2022/10/29 20:01:13;;;;;;;14.10;7.43;;;;;;;18.60;100.00;101502.50;2617409;36;20034;-57
2022/10/29 20:03:42;;;;;;;19.42;8.13;;;;;;;18.63;100.00;101507.59;2614409;36;20049;-58
2022/10/29 20:06:10;;;;;;;;;;;;;;;18.70;100.00;101512.19;2615618;36;20023;-57
2022/10/29 20:08:39;;;;;;;15.27;7.37;;;;;;;18.73;100.00;101508.25;2615847;36;19985;-56
2022/10/29 20:13:36;;;;;;;;;;;;;;;18.58;100.00;101509.97;2613739;54;20022;-55
2022/10/29 20:16:12;;;;;;;10.32;6.32;;;;;;;18.62;100.00;101524.97;2619783;31;19941;-58
2022/10/29 20:18:41;;;;;;;13.93;7.72;;;;;;;18.66;100.00;101513.53;2615160;54;20041;-58
2022/10/29 20:21:17;;;;;;;15.40;6.80;;;;;;;18.79;100.00;101518.47;2614825;31;20516;-57
2022/10/29 20:23:55;;;;;;;12.90;6.93;;;;;;;18.73;100.00;101519.16;2615171;36;20038;-61
2022/10/29 20:26:24;;;;;;;15.43;6.82;;;;;;;18.72;100.00;101518.28;2613361;36;20089;-57
2022/10/29 20:28:55;;;;;;;16.55;6.78;;;;;;;18.70;100.00;101516.78;2615153;36;20023;-55
2022/10/29 20:31:32;;;;;;;19.35;6.90;;;;;;;18.77;100.00;101525.09;2616618;36;20038;-56
2022/10/29 20:34:03;;;;;;;16.30;6.82;;;;;;;18.74;100.00;101515.38;2614778;36;20134;-57
2022/10/29 20:36:33;;;;;;;16.73;6.93;;;;;;;18.84;100.00;101520.66;2615931;36;20034;-57
2022/10/29 20:39:02;;;;;;;14.98;7.32;;;;;;;18.84;100.00;101518.78;2615081;47;20190;-57
2022/10/29 20:52:18;;;;;;;13.07;6.15;;;;;;;18.70;100.00;101516.78;2615263;36;20062;-57
2022/10/29 20:54:49;;;;;;;15.45;6.45;;;;;;;18.65;100.00;101532.81;2614088;47;20038;-58
2022/10/29 20:57:17;;;;;;;13.07;6.47;;;;;;;18.70;100.00;101530.44;2613037;31;20030;-56
2022/10/29 21:02:27;;;;;;;15.88;7.30;;;;;;;18.46;100.00;101525.84;2615318;36;20057;-54
2022/10/29 21:04:55;;;;;;;14.00;6.70;;;;;;;18.47;100.00;101531.13;2614541;36;20042;-59
2022/10/29 21:10:12;;;;;;;14.73;6.43;;;;;;;18.61;100.00;101536.88;2613624;36;20398;-56
2022/10/29 21:17:43;;;;;;;15.38;6.30;;;;;;;18.56;100.00;101535.56;2612030;54;20042;-57
2022/10/29 21:20:12;;;;;;;20.38;7.93;;;;;;;18.60;100.00;101535.22;2612387;36;20035;-56
2022/10/29 21:22:40;;;;;;;16.27;6.35;;;;;;;18.60;100.00;101530.59;2613414;36;20034;-56
2022/10/29 21:25:12;;;;;;;16.13;6.57;;;;;;;18.58;100.00;101539.97;2612132;47;20046;-56
2022/10/29 21:27:41;;;;;;;13.40;7.20;;;;;;;18.54;100.00;101540.31;2652277;36;20037;-58
2022/10/29 21:30:11;;;;;;;15.52;7.82;;;;;;;18.50;100.00;101541.66;2610760;36;20061;-57
2022/10/29 21:32:40;;;;;;;13.27;6.82;;;;;;;18.38;100.00;101535.72;2613043;36;20586;-57
2022/10/29 21:48:33;;;;;;;13.57;7.47;;;;;;;18.23;100.00;101539.28;2613301;54;20029;-57
2022/10/29 21:56:16;;;;;;;13.35;6.78;;;;;;;18.25;100.00;101540.84;2612757;36;20038;-54
2022/10/29 22:45:26;;;;;;;19.23;7.78;;;;;;;17.56;100.00;101553.81;2612957;36;20054;-57
2022/10/29 22:53:13;;;;;;;16.10;7.30;;;;;;;17.59;100.00;101561.63;2618097;36;20038;-56
